createdAt,value
2023-04-01T00:02:15.629Z,8.93
2023-04-01T00:04:42.522Z,9.20
2023-04-01T00:07:09.191Z,4.97
2023-04-01T00:09:36.139Z,4.38
2023-04-01T00:12:02.579Z,5.50
2023-04-01T00:14:30.040Z,16.75
2023-04-01T00:16:56.910Z,9.10
2023-04-01T00:19:23.435Z,5.30
2023-04-01T00:21:49.903Z,4.45
2023-04-01T00:24:16.402Z,6.75
2023-04-01T00:26:43.482Z,8.23
2023-04-01T00:29:09.914Z,6.00
2023-04-01T00:31:36.437Z,4.97
2023-04-01T00:34:03.330Z,7.22
2023-04-01T00:36:29.917Z,7.50
2023-04-01T00:38:56.402Z,5.60
2023-04-01T00:41:22.956Z,8.20
2023-04-01T00:43:50.751Z,7.18
2023-04-01T00:46:17.295Z,5.18
2023-04-01T00:48:49.466Z,6.43
2023-04-01T00:51:21.484Z,11.20
2023-04-01T00:53:49.261Z,9.70
2023-04-01T00:56:22.148Z,8.23
2023-04-01T00:58:55.294Z,7.87
2023-04-01T01:01:23.081Z,4.63
2023-04-01T01:03:49.710Z,13.85
2023-04-01T01:06:24.812Z,7.35
2023-04-01T01:09:08.591Z,7.15
2023-04-01T01:11:43.787Z,10.75
2023-04-01T01:14:19.795Z,7.35
2023-04-01T01:16:49.552Z,10.25
2023-04-01T01:19:34.905Z,12.38
2023-04-01T01:22:13.359Z,7.50
2023-04-01T01:24:58.164Z,5.55
2023-04-01T01:27:24.827Z,4.95
2023-04-01T01:29:51.571Z,9.73
2023-04-01T01:32:36.902Z,5.82
2023-04-01T01:35:09.171Z,3.78
2023-04-01T01:37:36.108Z,5.78
2023-04-01T01:40:04.489Z,16.88
2023-04-01T01:42:32.435Z,8.02
2023-04-01T01:45:00.480Z,9.35
2023-04-01T01:47:27.995Z,10.60
2023-04-01T01:49:56.276Z,7.80
2023-04-01T01:52:23.128Z,8.50
2023-04-01T01:54:53.947Z,10.02
2023-04-01T01:57:24.634Z,9.57
2023-04-01T01:59:53.051Z,8.35
2023-04-01T02:02:19.848Z,9.18
2023-04-01T02:04:47.059Z,10.95
2023-04-01T02:07:17.078Z,12.85
2023-04-01T02:09:44.339Z,12.13
2023-04-01T02:12:12.194Z,8.18
2023-04-01T02:14:44.170Z,10.18
2023-04-01T02:17:12.332Z,5.28
2023-04-01T02:19:42.202Z,11.65
2023-04-01T02:22:11.360Z,8.10
2023-04-01T02:24:38.974Z,7.13
2023-04-01T02:27:05.626Z,10.10
2023-04-01T02:29:32.367Z,13.10
2023-04-01T02:31:59.330Z,9.82
2023-04-01T02:34:26.466Z,7.55
2023-04-01T02:36:53.164Z,6.97
2023-04-01T02:39:19.893Z,6.88
2023-04-01T02:41:46.594Z,10.52
2023-04-01T02:44:13.967Z,8.13
2023-04-01T02:46:40.754Z,7.15
2023-04-01T02:49:07.274Z,12.68
2023-04-01T02:51:34.017Z,10.02
2023-04-01T02:54:00.693Z,7.93
2023-04-01T02:56:27.302Z,9.73
2023-04-01T02:58:54.098Z,9.35
2023-04-01T03:01:21.249Z,6.85
2023-04-01T03:03:47.992Z,12.27
2023-04-01T03:06:15.968Z,6.95
2023-04-01T03:08:42.675Z,14.52
2023-04-01T03:11:10.122Z,6.72
2023-04-01T03:13:36.551Z,6.10
2023-04-01T03:16:03.474Z,12.40
2023-04-01T03:18:29.971Z,11.35
2023-04-01T03:20:56.420Z,6.10
2023-04-01T03:23:23.040Z,4.03
2023-04-01T03:25:49.466Z,6.50
2023-04-01T03:28:15.908Z,6.88
2023-04-01T03:30:42.413Z,11.75
2023-04-01T03:33:08.912Z,11.98
2023-04-01T03:35:37.050Z,8.95
2023-04-01T03:38:03.796Z,5.40
2023-04-01T03:40:30.386Z,8.52
2023-04-01T03:42:57.293Z,5.13
2023-04-01T03:45:23.903Z,7.55
2023-04-01T03:47:50.446Z,11.35
2023-04-01T03:50:17.062Z,12.52
2023-04-01T03:52:43.511Z,21.20
2023-04-01T03:55:09.984Z,11.02
2023-04-01T03:57:36.528Z,9.05
2023-04-01T04:00:03.136Z,8.20
2023-04-01T04:02:29.652Z,8.48
2023-04-01T04:04:56.301Z,6.65
2023-04-01T04:07:22.745Z,11.95
2023-04-01T04:09:49.216Z,11.05
2023-04-01T04:12:15.692Z,11.60
2023-04-01T04:14:42.117Z,11.57
2023-04-01T04:17:14.691Z,8.25
2023-04-01T04:19:41.163Z,7.57
2023-04-01T04:22:07.627Z,11.00
2023-04-01T04:24:35.171Z,6.85
2023-04-01T04:27:01.712Z,8.65
2023-04-01T04:29:28.403Z,8.05
2023-04-01T04:31:54.928Z,12.35
2023-04-01T04:34:23.302Z,8.48
2023-04-01T04:36:50.028Z,7.97
2023-04-01T04:39:16.587Z,8.90
2023-04-01T04:41:43.054Z,10.77
2023-04-01T04:44:09.495Z,9.32
2023-04-01T04:46:37.150Z,11.38
2023-04-01T04:49:03.684Z,8.82
2023-04-01T04:51:30.114Z,12.27
2023-04-01T04:53:56.593Z,7.55
2023-04-01T04:56:23.894Z,8.77
2023-04-01T04:58:50.738Z,13.27
2023-04-01T05:01:18.057Z,11.75
2023-04-01T05:03:44.883Z,10.05
2023-04-01T05:06:12.554Z,10.70
2023-04-01T05:08:40.596Z,11.90
2023-04-01T05:11:14.378Z,15.38
2023-04-01T05:16:11.038Z,5.80
2023-04-01T05:18:37.553Z,20.33
2023-04-01T05:21:04.039Z,9.10
2023-04-01T05:23:34.118Z,10.55
2023-04-01T05:26:04.089Z,13.20
2023-04-01T05:28:30.510Z,16.55
2023-04-01T05:30:59.195Z,11.32
2023-04-01T05:33:25.706Z,13.27
2023-04-01T05:35:52.230Z,20.52
2023-04-01T05:38:18.769Z,18.38
2023-04-01T05:40:45.724Z,16.05
2023-04-01T05:43:12.181Z,12.95
2023-04-01T05:45:38.770Z,14.35
2023-04-01T05:48:05.447Z,14.45
2023-04-01T05:50:32.097Z,10.48
2023-04-01T05:52:58.581Z,13.65
2023-04-01T05:55:25.074Z,13.02
2023-04-01T05:57:51.634Z,8.00
2023-04-01T06:00:18.356Z,10.95
2023-04-01T06:02:45.035Z,13.73
2023-04-01T06:05:11.761Z,12.05
2023-04-01T06:07:38.191Z,14.73
2023-04-01T06:10:11.155Z,13.70
2023-04-01T06:12:52.851Z,8.45
2023-04-01T06:15:19.328Z,12.32
2023-04-01T06:18:04.786Z,14.93
2023-04-01T06:20:33.968Z,12.40
2023-04-01T06:23:06.557Z,14.88
2023-04-01T06:25:45.438Z,16.60
2023-04-01T06:28:28.588Z,11.00
2023-04-01T06:31:15.402Z,14.17
2023-04-01T06:33:43.604Z,15.05
2023-04-01T06:36:23.764Z,17.35
2023-04-01T06:38:56.456Z,19.40
2023-04-01T06:41:26.024Z,16.33
2023-04-01T06:44:10.991Z,13.55
2023-04-01T06:46:37.426Z,13.40
2023-04-01T06:49:09.940Z,14.68
2023-04-01T06:51:55.244Z,19.15
2023-04-01T06:54:25.293Z,16.98
2023-04-01T06:56:56.508Z,26.38
2023-04-01T06:59:34.350Z,26.42
2023-04-01T07:02:06.036Z,12.05
2023-04-01T07:04:32.622Z,15.00
2023-04-01T07:07:01.361Z,19.90
2023-04-01T07:09:32.322Z,14.02
2023-04-01T07:12:01.695Z,18.35
2023-04-01T07:14:33.135Z,14.43
2023-04-01T07:17:18.104Z,10.90
2023-04-01T07:19:47.476Z,12.93
2023-04-01T07:22:24.797Z,15.38
2023-04-01T07:24:51.955Z,17.90
2023-04-01T07:27:18.410Z,8.25
2023-04-01T07:29:44.989Z,17.10
2023-04-01T07:32:30.126Z,11.35
2023-04-01T07:34:59.334Z,14.93
2023-04-01T07:37:28.804Z,15.65
2023-04-01T07:39:58.036Z,12.27
2023-04-01T07:42:29.394Z,12.30
2023-04-01T07:45:05.214Z,16.20
2023-04-01T07:47:50.290Z,23.77
2023-04-01T07:50:26.775Z,14.80
2023-04-01T07:52:56.027Z,19.98
2023-04-01T07:55:22.505Z,22.77
2023-04-01T07:57:58.168Z,25.23
2023-04-01T08:00:24.746Z,10.68
2023-04-01T08:02:51.451Z,20.85
2023-04-01T08:05:17.974Z,13.43
2023-04-01T08:07:53.374Z,13.65
2023-04-01T08:10:28.035Z,18.50
2023-04-01T08:13:12.949Z,19.23
2023-04-01T08:16:00.715Z,18.65
2023-04-01T08:18:29.907Z,19.50
2023-04-01T08:21:00.993Z,19.48
2023-04-01T08:23:30.284Z,11.90
2023-04-01T08:26:06.078Z,18.35
2023-04-01T08:28:45.787Z,20.52
2023-04-01T08:31:12.323Z,17.38
2023-04-01T08:33:39.359Z,19.70
2023-04-01T08:36:12.464Z,18.15
2023-04-01T08:38:44.568Z,22.98
2023-04-01T08:41:21.329Z,21.17
2023-04-01T08:43:47.802Z,23.67
2023-04-01T08:46:35.510Z,22.38
2023-04-01T08:49:14.262Z,27.05
2023-04-01T08:51:52.777Z,22.20
2023-04-01T08:54:38.940Z,17.35
2023-04-01T08:57:09.277Z,13.32
2023-04-01T09:00:08.309Z,26.88
2023-04-01T09:02:47.984Z,26.15
2023-04-01T09:05:17.625Z,27.27
2023-04-01T09:08:00.880Z,27.73
2023-04-01T09:10:42.811Z,20.60
2023-04-01T09:13:21.272Z,17.92
2023-04-01T09:15:57.172Z,18.88
2023-04-01T09:18:35.905Z,19.70
2023-04-01T09:21:20.885Z,16.15
2023-04-01T09:24:02.682Z,20.00
2023-04-01T09:26:45.486Z,21.33
2023-04-01T09:29:18.064Z,21.08
2023-04-01T09:32:19.946Z,24.58
2023-04-01T09:35:06.841Z,24.48
2023-04-01T09:37:33.343Z,20.35
2023-04-01T09:40:02.530Z,24.40
2023-04-01T09:42:47.890Z,19.90
2023-04-01T09:45:26.656Z,16.42
2023-04-01T09:47:56.021Z,11.43
2023-04-01T09:50:41.360Z,14.57
2023-04-01T09:53:22.955Z,19.67
2023-04-01T09:56:08.143Z,12.05
2023-04-01T09:58:43.534Z,15.98
2023-04-01T10:01:19.705Z,20.88
2023-04-01T10:04:04.828Z,14.45
2023-04-01T10:06:34.627Z,19.05
2023-04-01T10:09:07.021Z,16.67
2023-04-01T10:11:39.479Z,16.35
2023-04-01T10:14:29.085Z,18.08
2023-04-01T10:17:07.491Z,16.90
2023-04-01T10:19:36.964Z,18.92
2023-04-01T10:22:12.461Z,23.88
2023-04-01T10:24:57.434Z,22.08
2023-04-01T10:27:42.618Z,21.15
2023-04-01T10:30:24.468Z,16.52
2023-04-01T10:33:16.264Z,11.77
2023-04-01T10:35:42.763Z,14.68
2023-04-01T10:38:15.310Z,20.27
2023-04-01T10:40:56.872Z,15.10
2023-04-01T10:43:23.324Z,16.85
2023-04-01T10:46:08.331Z,21.02
2023-04-01T10:48:40.912Z,12.95
2023-04-01T10:51:26.255Z,15.88
2023-04-01T10:54:22.123Z,16.70
2023-04-01T10:56:55.742Z,18.30
2023-04-01T10:59:28.222Z,19.85
2023-04-01T11:02:11.501Z,23.17
2023-04-01T11:07:08.122Z,21.35
2023-04-01T11:09:53.239Z,14.15
2023-04-01T11:12:19.662Z,18.10
2023-04-01T11:15:04.685Z,15.82
2023-04-01T11:17:37.232Z,19.05
2023-04-01T11:20:29.935Z,13.93
2023-04-01T11:22:59.160Z,15.13
2023-04-01T11:25:28.352Z,11.68
2023-04-01T11:28:08.559Z,13.82
2023-04-01T11:30:56.574Z,10.38
2023-04-01T11:33:29.531Z,13.35
2023-04-01T11:36:11.421Z,12.70
2023-04-01T11:38:41.106Z,12.15
2023-04-01T11:41:16.606Z,13.57
2023-04-01T11:43:52.348Z,17.92
2023-04-01T11:46:22.014Z,14.82
2023-04-01T11:49:06.976Z,17.65
2023-04-01T11:51:33.440Z,14.07
2023-04-01T11:54:18.678Z,13.75
2023-04-01T11:56:51.592Z,15.70
2023-04-01T11:59:20.841Z,13.63
2023-04-01T12:01:55.647Z,16.27
2023-04-01T12:04:34.336Z,14.70
2023-04-01T12:07:18.882Z,11.52
2023-04-01T12:09:50.690Z,18.30
2023-04-01T12:12:35.811Z,16.80
2023-04-01T12:15:05.530Z,12.40
2023-04-01T12:17:37.817Z,17.52
2023-04-01T12:20:10.094Z,13.88
2023-04-01T12:22:39.340Z,22.35
2023-04-01T12:25:08.823Z,14.68
2023-04-01T12:27:41.397Z,17.02
2023-04-01T12:30:10.960Z,15.20
2023-04-01T12:32:43.320Z,13.52
2023-04-01T12:35:21.512Z,13.35
2023-04-01T12:38:06.613Z,18.95
2023-04-01T12:40:51.632Z,17.88
2023-04-01T12:43:27.299Z,15.88
2023-04-01T12:45:53.745Z,14.45
2023-04-01T12:48:23.061Z,9.68
2023-04-01T12:51:08.209Z,11.20
2023-04-01T12:53:53.205Z,9.90
2023-04-01T12:56:29.005Z,12.18
2023-04-01T12:58:58.521Z,12.10
2023-04-01T13:01:43.823Z,13.82
2023-04-01T13:04:13.638Z,18.15
2023-04-01T13:06:52.620Z,20.15
2023-04-01T13:09:29.857Z,18.88
2023-04-01T13:11:56.308Z,16.58
2023-04-01T13:14:31.866Z,12.45
2023-04-01T13:17:17.788Z,12.13
2023-04-01T13:20:19.815Z,18.25
2023-04-01T13:22:52.589Z,12.02
2023-04-01T13:25:29.026Z,13.93
2023-04-01T13:28:05.400Z,11.23
2023-04-01T13:30:36.240Z,21.80
2023-04-01T13:33:21.001Z,13.93
2023-04-01T13:35:53.626Z,13.18
2023-04-01T13:38:38.924Z,13.45
2023-04-01T13:41:34.819Z,15.20
2023-04-01T13:44:07.222Z,12.57
2023-04-01T13:46:33.693Z,18.05
2023-04-01T13:49:03.229Z,15.82
2023-04-01T13:51:38.842Z,17.83
2023-04-01T13:54:27.809Z,14.75
2023-04-01T13:57:13.124Z,20.98
2023-04-01T13:59:39.594Z,19.02
2023-04-01T14:02:21.779Z,19.88
2023-04-01T14:05:00.172Z,19.00
2023-04-01T14:07:38.838Z,18.83
2023-04-01T14:10:05.242Z,9.35
2023-04-01T14:12:37.562Z,15.65
2023-04-01T14:15:03.974Z,15.75
2023-04-01T14:17:30.469Z,23.23
2023-04-01T14:20:04.952Z,12.18
2023-04-01T14:22:39.622Z,13.85
2023-04-01T14:25:24.653Z,15.88
2023-04-01T14:28:06.183Z,17.95
2023-04-01T14:30:44.902Z,14.48
2023-04-01T14:33:37.817Z,20.33
2023-04-01T14:36:14.311Z,18.50
2023-04-01T14:38:48.787Z,21.95
2023-04-01T14:41:15.585Z,17.40
2023-04-01T14:43:53.985Z,15.77
2023-04-01T14:46:39.308Z,17.08
2023-04-01T14:49:15.680Z,18.65
2023-04-01T14:51:42.252Z,18.92
2023-04-01T14:54:11.722Z,19.63
2023-04-01T14:56:38.191Z,18.15
2023-04-01T14:59:23.250Z,16.60
2023-04-01T15:01:52.917Z,14.75
2023-04-01T15:04:34.618Z,17.63
2023-04-01T15:07:19.598Z,14.60
2023-04-01T15:09:46.133Z,20.63
2023-04-01T15:12:22.584Z,17.45
2023-04-01T15:15:04.695Z,17.67
2023-04-01T15:17:46.445Z,21.85
2023-04-01T15:20:31.103Z,21.73
2023-04-01T15:23:08.235Z,13.85
2023-04-01T15:25:37.550Z,19.08
2023-04-01T15:28:19.056Z,20.75
2023-04-01T15:30:45.463Z,20.60
2023-04-01T15:33:18.111Z,20.33
2023-04-01T15:35:53.953Z,18.90
2023-04-01T15:38:20.414Z,11.13
2023-04-01T15:40:46.835Z,19.02
2023-04-01T15:43:13.263Z,19.23
2023-04-01T15:45:58.690Z,22.30
2023-04-01T15:48:46.022Z,24.20
2023-04-01T15:51:35.730Z,23.85
2023-04-01T15:54:17.469Z,27.70
2023-04-01T15:56:44.053Z,26.77
2023-04-01T15:59:33.555Z,17.35
2023-04-01T16:02:01.863Z,19.77
2023-04-01T16:04:28.331Z,24.42
2023-04-01T16:07:30.596Z,17.48
2023-04-01T16:09:56.995Z,27.17
2023-04-01T16:12:24.732Z,20.48
2023-04-01T16:14:57.812Z,15.77
2023-04-01T16:17:43.731Z,19.00
2023-04-01T16:20:10.195Z,21.70
2023-04-01T16:22:41.589Z,21.77
2023-04-01T16:25:30.185Z,21.23
2023-04-01T16:28:02.664Z,30.08
2023-04-01T16:30:39.731Z,30.08
2023-04-01T16:33:21.586Z,20.85
2023-04-01T16:35:54.047Z,22.40
2023-04-01T16:38:20.515Z,22.80
2023-04-01T16:41:08.146Z,24.15
2023-04-01T16:43:40.714Z,26.15
2023-04-01T16:46:13.438Z,26.75
2023-04-01T16:48:58.511Z,31.70
2023-04-01T16:51:25.144Z,20.73
2023-04-01T16:54:03.495Z,19.42
2023-04-01T16:56:37.952Z,23.23
2023-04-01T16:59:07.633Z,27.83
2023-04-01T17:01:52.843Z,23.52
2023-04-01T17:04:24.467Z,32.22
2023-04-01T17:06:54.788Z,28.17
2023-04-01T17:09:26.617Z,31.33
2023-04-01T17:11:53.088Z,26.20
2023-04-01T17:14:19.870Z,32.00
2023-04-01T17:16:55.402Z,22.50
2023-04-01T17:19:26.308Z,30.70
2023-04-01T17:22:02.634Z,21.80
2023-04-01T17:24:44.561Z,22.10
2023-04-01T17:27:20.218Z,27.55
2023-04-01T17:29:52.954Z,20.42
2023-04-01T17:32:28.639Z,20.48
2023-04-01T17:35:02.224Z,19.67
2023-04-01T17:37:58.796Z,28.55
2023-04-01T17:40:53.783Z,24.95
2023-04-01T17:43:39.666Z,19.88
2023-04-01T17:46:26.551Z,17.20
2023-04-01T17:49:16.076Z,18.95
2023-04-01T17:51:57.947Z,26.70
2023-04-01T17:54:37.090Z,20.60
2023-04-01T17:57:24.922Z,16.00
2023-04-01T17:59:57.158Z,16.65
2023-04-01T18:02:23.953Z,19.60
2023-04-01T18:05:09.009Z,25.88
2023-04-01T18:07:55.432Z,24.13
2023-04-01T18:10:42.697Z,17.90
2023-04-01T18:13:27.699Z,17.40
2023-04-01T18:16:14.435Z,25.17
2023-04-01T18:18:46.734Z,24.88
2023-04-01T18:21:22.246Z,15.60
2023-04-01T18:24:02.241Z,22.73
2023-04-01T18:26:32.157Z,18.48
2023-04-01T18:29:13.922Z,14.75
2023-04-01T18:31:45.442Z,19.50
2023-04-01T18:34:31.098Z,22.25
2023-04-01T18:37:01.822Z,17.25
2023-04-01T18:39:48.486Z,21.10
2023-04-01T18:42:24.449Z,22.35
2023-04-01T18:44:57.589Z,19.77
2023-04-01T18:47:27.305Z,19.42
2023-04-01T18:50:02.860Z,19.77
2023-04-01T18:52:35.682Z,19.42
2023-04-01T18:55:02.093Z,23.00
2023-04-01T18:57:39.883Z,19.98
2023-04-01T19:00:16.679Z,24.73
2023-04-01T19:02:51.978Z,16.85
2023-04-01T19:05:20.735Z,30.05
2023-04-01T19:08:12.774Z,46.85
2023-04-01T19:10:47.513Z,28.02
2023-04-01T19:13:20.155Z,21.77
2023-04-01T19:16:10.211Z,46.72
2023-04-01T19:18:57.155Z,27.88
2023-04-01T19:21:44.205Z,23.67
2023-04-01T19:24:10.938Z,18.92
2023-04-01T19:26:55.363Z,24.60
2023-04-01T19:29:31.057Z,27.92
2023-04-01T19:32:03.429Z,25.80
2023-04-01T19:34:44.960Z,32.05
2023-04-01T19:37:11.371Z,21.23
2023-04-01T19:39:49.320Z,24.90
2023-04-01T19:42:25.336Z,20.17
2023-04-01T19:45:10.399Z,23.65
2023-04-01T19:47:43.418Z,21.38
2023-04-01T19:50:09.987Z,20.90
2023-04-01T19:52:41.205Z,29.65
2023-04-01T19:55:16.913Z,20.02
2023-04-01T19:57:55.583Z,25.02
2023-04-01T20:00:34.167Z,27.25
2023-04-01T20:03:01.157Z,22.48
2023-04-01T20:05:27.732Z,30.10
2023-04-01T20:07:57.643Z,32.35
2023-04-01T20:10:33.111Z,46.85
2023-04-01T20:13:22.571Z,54.03
2023-04-01T20:15:58.911Z,42.17
2023-04-01T20:18:49.813Z,39.75
2023-04-01T20:21:16.328Z,32.28
2023-04-01T20:23:46.156Z,25.05
2023-04-01T20:26:14.038Z,24.83
2023-04-01T20:28:45.761Z,24.23
2023-04-01T20:31:31.024Z,32.38
2023-04-01T20:34:16.262Z,29.02
2023-04-01T20:37:01.489Z,22.25
2023-04-01T20:39:35.592Z,21.42
2023-04-01T20:42:37.546Z,18.92
2023-04-01T20:45:17.117Z,20.13
2023-04-01T20:47:48.656Z,24.88
2023-04-01T20:50:26.707Z,21.63
2023-04-01T20:53:06.868Z,21.17
2023-04-01T20:55:51.686Z,21.25
2023-04-01T20:58:37.183Z,25.83
2023-04-01T21:01:06.608Z,19.67
2023-04-01T21:03:48.376Z,24.95
2023-04-01T21:06:27.756Z,22.88
2023-04-01T21:09:07.515Z,22.70
2023-04-01T21:11:37.819Z,20.08
2023-04-01T21:14:13.472Z,20.50
2023-04-01T21:16:53.889Z,25.25
2023-04-01T21:19:41.936Z,23.48
2023-04-01T21:22:17.664Z,43.85
2023-04-01T21:24:56.214Z,74.22
2023-04-01T21:27:40.262Z,85.85
2023-04-01T21:30:06.845Z,89.15
2023-04-01T21:32:39.438Z,86.00
2023-04-01T21:35:08.823Z,52.60
2023-04-01T21:37:58.282Z,52.53
2023-04-01T21:40:41.828Z,45.97
2023-04-01T21:43:14.183Z,34.97
2023-04-01T21:45:50.093Z,33.28
2023-04-01T21:48:35.801Z,34.85
2023-04-01T21:51:19.694Z,30.77
2023-04-01T21:53:55.373Z,25.75
2023-04-01T21:56:28.072Z,21.63
2023-04-01T21:59:13.066Z,22.27
2023-04-01T22:01:58.707Z,27.13
2023-04-01T22:04:43.765Z,36.53
2023-04-01T22:07:18.614Z,20.02
2023-04-01T22:10:04.129Z,23.15
2023-04-01T22:12:39.704Z,26.42
2023-04-01T22:15:06.119Z,24.98
2023-04-01T22:17:41.713Z,22.08
2023-04-01T22:20:11.576Z,29.73
2023-04-01T22:22:58.326Z,38.58
2023-04-01T22:25:30.943Z,28.23
2023-04-01T22:28:04.619Z,30.30
2023-04-01T22:30:34.029Z,34.42
2023-04-01T22:33:08.423Z,25.00
2023-04-01T22:35:55.148Z,19.20
2023-04-01T22:38:35.421Z,17.38
2023-04-01T22:41:21.096Z,20.38
2023-04-01T22:43:48.587Z,17.23
2023-04-01T22:46:50.765Z,19.17
2023-04-01T22:49:25.282Z,17.38
2023-04-01T22:52:27.240Z,19.27
2023-04-01T22:54:55.419Z,19.38
2023-04-01T22:57:21.880Z,27.55
2023-04-01T22:59:56.774Z,26.63
2023-04-01T23:02:26.656Z,23.45
2023-04-01T23:05:13.234Z,20.88
2023-04-01T23:08:01.394Z,26.40
2023-04-01T23:10:32.515Z,20.77
2023-04-01T23:12:59.940Z,21.83
2023-04-01T23:15:27.630Z,24.10
2023-04-01T23:17:59.963Z,27.73
2023-04-01T23:20:54.035Z,20.73
2023-04-01T23:23:24.039Z,26.63
2023-04-01T23:26:09.129Z,26.38
2023-04-01T23:28:44.289Z,21.88
2023-04-01T23:31:27.264Z,22.52
2023-04-01T23:33:57.815Z,14.30
2023-04-01T23:36:24.634Z,17.98
2023-04-01T23:38:51.411Z,17.80
2023-04-01T23:41:21.339Z,22.38
2023-04-01T23:43:51.672Z,26.42
2023-04-01T23:46:18.232Z,22.30
2023-04-01T23:48:45.834Z,16.38
2023-04-01T23:51:19.188Z,22.40
2023-04-01T23:53:47.041Z,24.85
2023-04-01T23:56:14.067Z,22.90
2023-04-01T23:58:53.480Z,19.73
